Time;durP1;ratioP1;P1;durP2;ratioP2;P2;SDS_P1;SDS_P2;PMS_P1;PMS_P2;Temp;Humidity;BMP_temperature;BMP_pressure;BME280_temperature;BME280_humidity;BME280_pressure;Samples;Min_cycle;Max_cycle;Signal;HPM_P1;HPM_P2
2022/04/20 00:00:34;;;;;;;19.53;10.53;;;4.90;81.40;;;;;;5073435;28;20646;-55
2022/04/20 00:03:00;;;;;;;22.10;11.17;;;4.90;81.70;;;;;;5054008;28;20213;-55
2022/04/20 00:05:26;;;;;;;22.63;10.40;;;4.90;82.40;;;;;;5071440;28;20558;-56
2022/04/20 00:07:52;;;;;;;17.30;10.50;;;4.80;82.70;;;;;;5053867;28;20186;-55
2022/04/20 00:10:18;;;;;;;18.20;10.63;;;4.80;83.30;;;;;;5035635;28;20671;-55
2022/04/20 00:12:44;;;;;;;19.53;10.80;;;4.70;83.90;;;;;;5071770;28;20199;-54
2022/04/20 00:15:10;;;;;;;22.27;11.43;;;4.70;84.10;;;;;;5053311;28;20269;-55
2022/04/20 00:17:36;;;;;;;22.67;11.00;;;4.70;84.90;;;;;;5053702;28;20186;-53
2022/04/20 00:20:02;;;;;;;23.17;11.30;;;4.60;85.50;;;;;;5070436;28;20629;-53
2022/04/20 00:22:28;;;;;;;22.80;11.70;;;4.50;86.00;;;;;;5053262;28;20181;-54
2022/04/20 00:24:53;;;;;;;23.70;12.97;;;4.50;87.90;;;;;;5071663;28;20189;-52
2022/04/20 00:27:19;;;;;;;20.80;11.83;;;4.40;89.30;;;;;;5071335;28;20181;-53
2022/04/20 00:29:45;;;;;;;21.43;11.73;;;4.40;89.90;;;;;;5052666;28;20272;-55
2022/04/20 00:32:11;;;;;;;24.37;12.57;;;4.30;90.50;;;;;;5069892;28;20187;-55
2022/04/20 00:34:37;;;;;;;27.00;13.37;;;4.30;90.90;;;;;;5053436;28;20650;-56
2022/04/20 00:37:03;;;;;;;22.73;12.73;;;4.30;91.60;;;;;;5053653;28;20186;-53
2022/04/20 00:39:29;;;;;;;22.10;12.17;;;4.30;92.10;;;;;;5071089;28;20555;-50
2022/04/20 00:41:55;;;;;;;19.70;12.40;;;4.30;92.40;;;;;;5053630;28;20272;-52
2022/04/20 00:44:21;;;;;;;25.63;12.73;;;4.20;92.80;;;;;;5065102;28;20194;-55
2022/04/20 00:46:47;;;;;;;23.37;12.33;;;4.20;93.20;;;;;;5071395;28;20265;-57
2022/04/20 00:49:14;;;;;;;23.47;11.63;;;4.20;93.60;;;;;;5071124;28;20193;-51
2022/04/20 00:51:51;;;;;;;26.00;11.27;;;4.20;93.50;;;;;;5073314;28;20181;-54
2022/04/20 00:54:18;;;;;;;26.97;12.07;;;4.20;93.80;;;;;;5056085;28;20243;-56
2022/04/20 00:56:44;;;;;;;27.20;12.40;;;4.20;93.90;;;;;;5073453;28;20212;-55
2022/04/20 00:59:11;;;;;;;23.60;11.47;;;4.10;94.30;;;;;;5073414;28;20638;-55
2022/04/20 01:01:38;;;;;;;26.70;11.13;;;4.10;94.40;;;;;;5075104;28;20191;-53
2022/04/20 01:04:04;;;;;;;20.03;11.33;;;4.10;94.60;;;;;;5077283;28;20199;-52
2022/04/20 01:06:30;;;;;;;19.03;10.43;;;4.10;94.50;;;;;;5076572;28;20520;-54
2022/04/20 01:08:55;;;;;;;20.23;11.07;;;4.00;94.60;;;;;;5076988;28;20180;-54
2022/04/20 01:11:22;;;;;;;25.43;10.83;;;4.00;94.90;;;;;;5076230;28;20283;-53
2022/04/20 01:13:48;;;;;;;17.80;9.87;;;4.00;94.90;;;;;;5060310;28;20696;-55
2022/04/20 01:16:14;;;;;;;19.83;10.67;;;4.00;94.90;;;;;;5095150;28;20512;-53
2022/04/20 01:18:43;;;;;;;20.20;10.27;;;4.00;95.30;;;;;;5059937;28;20287;-53
2022/04/20 01:21:10;;;;;;;19.33;10.37;;;3.90;95.40;;;;;;5060156;28;20223;-53
2022/04/20 01:23:37;;;;;;;21.27;10.67;;;3.90;95.60;;;;;;5059679;28;20486;-54
2022/04/20 01:26:10;;;;;;;19.97;10.30;;;3.90;95.80;;;;;;5076828;28;20612;-54
2022/04/20 01:28:41;;;;;;;24.03;11.03;;;3.80;96.00;;;;;;5076491;28;20182;-53
2022/04/20 01:31:07;;;;;;;25.93;11.90;;;3.80;96.40;;;;;;5076503;28;20551;-55
2022/04/20 01:33:33;;;;;;;31.60;13.07;;;3.80;97.50;;;;;;5094606;28;20515;-54
2022/04/20 01:36:00;;;;;;;28.50;13.77;;;3.80;99.30;;;;;;5094504;28;20191;-54
2022/04/20 01:38:27;;;;;;;21.13;10.53;;;3.70;99.90;;;;;;5076146;28;20172;-52
2022/04/20 01:40:53;;;;;;;23.00;9.93;;;3.70;99.00;;;;;;5076078;28;20180;-54
2022/04/20 01:43:19;;;;;;;18.00;9.83;;;3.80;98.20;;;;;;5069251;28;20224;-55
2022/04/20 01:45:45;;;;;;;17.63;8.93;;;3.70;98.10;;;;;;5056264;28;20178;-57
2022/04/20 01:48:11;;;;;;;26.23;10.47;;;3.70;97.90;;;;;;5056043;28;20181;-54
2022/04/20 01:51:46;;;;;;;19.00;10.20;;;3.70;98.10;;;;;;5060742;28;20209;-52
2022/04/20 01:53:24;;;;;;;23.33;11.17;;;3.60;98.30;;;;;;5093108;28;20236;-55
2022/04/20 01:55:49;;;;;;;21.10;10.03;;;3.60;98.90;;;;;;5075986;28;20181;-58
2022/04/20 01:58:15;;;;;;;23.10;10.57;;;3.50;99.10;;;;;;5059021;28;20267;-54
2022/04/20 02:00:41;;;;;;;17.77;10.63;;;3.50;99.10;;;;;;5059078;28;20597;-54
2022/04/20 02:03:07;;;;;;;21.43;9.63;;;3.30;99.70;;;;;;5059034;28;20188;-54
2022/04/20 02:05:33;;;;;;;16.37;9.63;;;3.30;99.90;;;;;;5057942;28;20181;-52
2022/04/20 02:07:59;;;;;;;18.20;10.10;;;3.30;99.90;;;;;;5085191;28;20249;-51
2022/04/20 02:10:25;;;;;;;19.77;9.70;;;3.30;99.90;;;;;;5064302;28;20246;-53
2022/04/20 02:12:51;;;;;;;20.23;9.93;;;3.30;99.90;;;;;;5073911;28;20625;-55
2022/04/20 02:15:17;;;;;;;23.30;9.50;;;3.20;99.90;;;;;;5055421;28;20222;-53
2022/04/20 02:17:43;;;;;;;19.33;9.60;;;3.20;99.90;;;;;;5056012;28;20535;-55
2022/04/20 02:20:10;;;;;;;17.27;9.60;;;3.10;99.90;;;;;;5055322;28;20196;-53
2022/04/20 02:22:36;;;;;;;17.53;10.10;;;3.10;99.90;;;;;;5055121;28;20706;-53
2022/04/20 02:25:03;;;;;;;16.77;9.10;;;3.10;99.90;;;;;;5055458;28;20216;-52
2022/04/20 02:27:29;;;;;;;16.30;8.77;;;3.20;99.90;;;;;;5038699;28;20188;-55
2022/04/20 02:29:55;;;;;;;25.77;9.77;;;3.10;99.90;;;;;;5073671;28;20181;-54
2022/04/20 02:32:24;;;;;;;20.53;9.63;;;3.10;99.90;;;;;;5038075;28;20196;-57
2022/04/20 02:34:49;;;;;;;14.97;8.67;;;3.00;99.90;;;;;;5055548;28;20235;-53
2022/04/20 02:37:16;;;;;;;22.63;9.27;;;3.00;99.90;;;;;;5038584;28;20550;-53
2022/04/20 02:39:44;;;;;;;24.73;10.27;;;3.00;99.90;;;;;;5073220;28;20668;-53
2022/04/20 02:42:11;;;;;;;21.80;9.67;;;2.90;99.90;;;;;;5072991;28;20282;-54
2022/04/20 02:44:39;;;;;;;15.10;8.67;;;2.80;99.90;;;;;;5072248;28;20191;-55
2022/04/20 02:47:05;;;;;;;19.80;10.73;;;2.90;99.90;;;;;;5075385;28;20184;-52
2022/04/20 02:49:31;;;;;;;23.40;12.03;;;2.90;99.90;;;;;;5058154;28;20194;-54
2022/04/20 02:51:57;;;;;;;24.83;10.87;;;2.90;99.90;;;;;;5042478;28;20189;-53
2022/04/20 02:54:23;;;;;;;24.23;11.27;;;2.80;99.90;;;;;;5054390;28;20267;-55
2022/04/20 02:56:49;;;;;;;20.00;10.97;;;2.80;99.90;;;;;;5054794;28;20580;-50
2022/04/20 02:59:15;;;;;;;21.87;9.90;;;2.70;99.90;;;;;;5038100;28;20185;-54
2022/04/20 03:01:41;;;;;;;23.23;10.33;;;2.80;99.90;;;;;;5054324;28;20193;-55
2022/04/20 03:04:07;;;;;;;23.03;10.30;;;2.80;99.90;;;;;;5037853;28;20220;-54
2022/04/20 03:06:33;;;;;;;19.23;11.27;;;2.90;99.90;;;;;;5054340;28;20241;-53
2022/04/20 03:08:59;;;;;;;34.40;12.83;;;2.90;99.90;;;;;;5037982;28;20188;-55
2022/04/20 03:11:24;;;;;;;21.33;11.43;;;2.90;99.90;;;;;;5037780;28;20233;-54
2022/04/20 03:13:50;;;;;;;32.10;11.83;;;3.00;99.90;;;;;;5037605;28;20220;-55
2022/04/20 03:16:16;;;;;;;23.17;11.27;;;3.00;99.90;;;;;;5054033;28;20191;-54
2022/04/20 03:18:42;;;;;;;18.33;10.13;;;3.00;99.90;;;;;;5054002;28;20214;-56
2022/04/20 03:21:08;;;;;;;22.40;9.73;;;3.10;99.90;;;;;;5071953;28;20189;-56
2022/04/20 03:23:34;;;;;;;16.40;9.97;;;3.10;99.90;;;;;;5053232;28;20189;-55
2022/04/20 03:26:00;;;;;;;22.30;9.83;;;3.10;99.90;;;;;;5037058;28;20188;-55
2022/04/20 03:28:26;;;;;;;19.87;10.10;;;3.20;99.90;;;;;;5053297;28;20185;-51
2022/04/20 03:30:51;;;;;;;23.40;10.43;;;3.30;99.90;;;;;;5053681;28;20191;-54
2022/04/20 03:33:18;;;;;;;16.40;10.07;;;3.40;99.90;;;;;;5053673;28;20181;-55
2022/04/20 03:35:44;;;;;;;17.93;10.10;;;3.50;99.90;;;;;;5053690;28;20199;-56
2022/04/20 03:38:10;;;;;;;22.23;9.67;;;3.50;99.90;;;;;;5071682;28;20191;-56
2022/04/20 03:40:36;;;;;;;23.97;10.17;;;3.40;99.90;;;;;;5071848;28;20180;-55
2022/04/20 03:43:02;;;;;;;22.50;9.43;;;3.50;99.90;;;;;;5058231;28;20543;-56
2022/04/20 03:45:28;;;;;;;17.33;9.07;;;3.50;99.90;;;;;;5073566;28;20184;-57
2022/04/20 03:47:54;;;;;;;17.43;7.90;;;3.60;99.90;;;;;;5073967;28;20711;-55
2022/04/20 03:50:20;;;;;;;16.17;8.30;;;3.60;99.90;;;;;;5054178;28;20241;-63
2022/04/20 03:52:46;;;;;;;17.30;9.10;;;3.70;99.90;;;;;;5036394;28;20250;-56
2022/04/20 03:55:12;;;;;;;18.80;9.20;;;3.70;99.90;;;;;;5053349;28;20246;-54
2022/04/20 03:57:39;;;;;;;16.10;8.17;;;3.80;99.90;;;;;;5053221;28;20185;-52
2022/04/20 04:00:07;;;;;;;19.93;9.03;;;3.80;99.90;;;;;;5036965;28;20594;-54
2022/04/20 04:02:33;;;;;;;14.23;8.97;;;3.90;99.90;;;;;;5036834;28;20292;-56
2022/04/20 04:04:59;;;;;;;22.17;9.63;;;3.90;99.90;;;;;;5053370;28;20235;-57
2022/04/20 04:07:25;;;;;;;28.43;11.77;;;3.90;99.90;;;;;;5070783;28;20633;-54
2022/04/20 04:09:51;;;;;;;20.23;9.60;;;4.00;99.90;;;;;;5036835;28;20190;-57
2022/04/20 04:12:22;;;;;;;19.50;9.53;;;4.00;99.90;;;;;;5037152;28;20236;-53
2022/04/20 04:14:48;;;;;;;16.70;10.03;;;4.10;99.90;;;;;;5036737;28;20237;-55
2022/04/20 04:17:14;;;;;;;16.97;10.13;;;4.10;99.90;;;;;;5071620;28;20185;-55
2022/04/20 04:19:40;;;;;;;23.13;9.83;;;4.00;99.90;;;;;;5036844;28;20226;-58
2022/04/20 04:22:07;;;;;;;17.23;10.60;;;4.10;99.90;;;;;;5036745;28;20272;-56
2022/04/20 04:24:36;;;;;;;18.87;10.87;;;4.10;99.90;;;;;;5053018;28;20185;-58
2022/04/20 04:27:06;;;;;;;18.03;10.80;;;4.20;99.90;;;;;;5036569;28;20241;-55
2022/04/20 04:29:33;;;;;;;19.50;11.17;;;4.30;99.90;;;;;;5052819;28;20274;-54
2022/04/20 04:31:59;;;;;;;24.37;12.37;;;4.30;99.90;;;;;;5052823;28;20194;-51
2022/04/20 04:34:26;;;;;;;23.73;11.50;;;4.30;99.90;;;;;;5070661;28;20382;-54
2022/04/20 04:36:53;;;;;;;19.17;10.67;;;4.40;99.90;;;;;;5054856;28;20197;-53
2022/04/20 04:39:21;;;;;;;17.73;10.60;;;4.50;99.90;;;;;;5056733;28;20197;-55
2022/04/20 04:42:02;;;;;;;18.50;10.57;;;4.60;99.90;;;;;;5055781;28;20530;-54
2022/04/20 04:44:28;;;;;;;19.63;10.53;;;4.70;99.90;;;;;;5072505;28;20587;-60
2022/04/20 04:49:39;;;;;;;23.50;10.17;;;5.00;99.90;;;;;;5079362;28;20654;-59
2022/04/20 04:52:11;;;;;;;19.77;10.43;;;5.10;99.90;;;;;;5058943;28;20181;-60
2022/04/20 04:54:40;;;;;;;22.77;11.30;;;5.20;99.90;;;;;;5023726;28;20239;-50
2022/04/20 04:57:11;;;;;;;21.97;10.07;;;5.20;99.90;;;;;;5062398;28;20656;-58
2022/04/20 04:59:42;;;;;;;15.90;9.50;;;5.20;99.80;;;;;;5073468;28;20174;-59
2022/04/20 05:02:09;;;;;;;19.50;8.77;;;5.30;99.50;;;;;;5055763;28;20181;-50
2022/04/20 05:04:36;;;;;;;20.63;9.40;;;5.40;99.00;;;;;;5055220;28;20519;-56
2022/04/20 05:07:02;;;;;;;24.13;10.43;;;5.40;99.00;;;;;;5055525;28;20241;-54
2022/04/20 05:09:28;;;;;;;26.20;9.90;;;5.50;99.20;;;;;;5055435;28;20252;-60
2022/04/20 05:11:54;;;;;;;19.33;8.80;;;5.50;99.20;;;;;;5042072;28;20186;-59
2022/04/20 05:14:20;;;;;;;14.33;8.07;;;5.50;98.70;;;;;;5074857;28;20219;-60
2022/04/20 05:16:46;;;;;;;16.60;9.33;;;5.60;98.60;;;;;;5058047;28;20189;-58
2022/04/20 05:19:12;;;;;;;19.40;10.73;;;5.70;98.70;;;;;;5093513;28;20183;-57
2022/04/20 05:21:38;;;;;;;19.67;8.93;;;5.90;98.90;;;;;;5074736;28;20555;-54
2022/04/20 05:24:05;;;;;;;20.30;11.20;;;6.00;98.20;;;;;;5074674;28;20235;-53
2022/04/20 05:26:31;;;;;;;21.40;8.90;;;5.90;98.80;;;;;;5054232;28;20202;-52
2022/04/20 05:28:56;;;;;;;16.27;9.07;;;6.00;98.60;;;;;;5071663;28;20620;-56
2022/04/20 05:31:22;;;;;;;16.70;8.87;;;6.00;98.30;;;;;;5072705;28;20193;-62
2022/04/20 05:33:49;;;;;;;15.80;7.47;;;6.10;98.10;;;;;;5037348;28;20304;-60
2022/04/20 05:36:18;;;;;;;20.27;7.97;;;6.10;97.30;;;;;;5070379;28;20194;-61
2022/04/20 05:41:41;;;;;;;14.77;8.27;;;5.80;97.50;;;;;;5076379;28;20317;-59
2022/04/20 05:44:11;;;;;;;19.20;8.97;;;6.10;97.50;;;;;;5089479;28;20190;-59
2022/04/20 05:46:41;;;;;;;21.43;9.23;;;6.30;97.30;;;;;;5092319;28;20215;-60
2022/04/20 05:49:07;;;;;;;15.93;8.27;;;6.40;97.00;;;;;;5092579;28;20202;-59
2022/04/20 05:51:33;;;;;;;18.47;8.00;;;6.50;97.10;;;;;;5070679;28;20179;-60
2022/04/20 05:53:59;;;;;;;19.43;7.63;;;6.70;96.60;;;;;;5090162;28;20706;-58
2022/04/20 05:56:25;;;;;;;19.10;8.23;;;6.70;96.10;;;;;;5072152;28;20180;-62
2022/04/20 05:58:52;;;;;;;15.90;7.63;;;6.80;96.00;;;;;;5053636;28;20193;-59
2022/04/20 06:01:19;;;;;;;13.73;7.83;;;6.80;95.60;;;;;;5071616;28;20185;-60
2022/04/20 06:03:46;;;;;;;20.27;8.57;;;6.70;95.30;;;;;;5090344;28;20181;-60
2022/04/20 06:06:12;;;;;;;16.43;7.90;;;6.70;95.40;;;;;;5090123;28;20173;-59
2022/04/20 06:08:38;;;;;;;18.73;7.97;;;6.80;95.20;;;;;;5033698;28;20616;-57
2022/04/20 06:11:04;;;;;;;12.40;7.57;;;6.90;95.10;;;;;;5037018;28;20203;-58
2022/04/20 06:13:30;;;;;;;18.90;8.40;;;6.70;94.80;;;;;;5070696;28;20173;-59
2022/04/20 06:15:56;;;;;;;20.10;8.37;;;6.70;95.20;;;;;;5055952;28;20181;-60
2022/04/20 06:18:22;;;;;;;16.47;7.73;;;7.00;95.30;;;;;;5092377;28;20185;-60
2022/04/20 06:20:48;;;;;;;19.80;9.57;;;7.30;94.80;;;;;;5073251;28;20181;-61
2022/04/20 06:23:14;;;;;;;15.03;7.47;;;7.40;94.30;;;;;;5073495;28;20193;-61
2022/04/20 06:25:40;;;;;;;17.40;7.47;;;7.50;93.90;;;;;;5073067;28;20200;-60
2022/04/20 06:28:06;;;;;;;13.03;7.87;;;7.50;93.60;;;;;;5057209;28;20598;-60
2022/04/20 06:30:32;;;;;;;19.97;8.60;;;7.60;93.70;;;;;;5073160;28;20208;-59
2022/04/20 06:32:58;;;;;;;27.27;10.00;;;7.60;93.80;;;;;;5073762;28;20652;-60
2022/04/20 06:35:24;;;;;;;17.03;7.60;;;7.70;94.00;;;;;;5057385;28;20244;-60
2022/04/20 06:37:50;;;;;;;24.73;8.07;;;7.80;93.00;;;;;;5073936;28;20719;-61
2022/04/20 06:40:16;;;;;;;24.03;9.20;;;7.80;93.00;;;;;;5056606;28;20187;-60
2022/04/20 06:42:42;;;;;;;15.77;7.93;;;7.80;92.90;;;;;;5071900;28;20177;-60
2022/04/20 06:45:09;;;;;;;21.43;8.80;;;7.80;92.70;;;;;;5073278;28;20185;-60
2022/04/20 06:47:35;;;;;;;17.93;8.83;;;7.70;93.20;;;;;;5053244;28;20548;-59
2022/04/20 06:50:01;;;;;;;16.53;8.60;;;7.80;93.20;;;;;;5070681;28;20190;-61
2022/04/20 07:00:39;;;;;;;17.73;8.70;;;8.30;92.70;;;;;;5075991;28;20664;-61
2022/04/20 07:03:08;;;;;;;16.90;8.03;;;8.30;92.30;;;;;;5056750;28;20606;-61
2022/04/20 07:05:35;;;;;;;19.67;9.63;;;8.60;92.30;;;;;;5091052;28;20174;-61
2022/04/20 07:08:01;;;;;;;17.73;8.27;;;8.60;92.20;;;;;;5091717;28;20192;-61
2022/04/20 07:10:28;;;;;;;19.57;9.53;;;8.70;91.80;;;;;;5056517;28;20189;-63
2022/04/20 07:12:54;;;;;;;25.77;9.83;;;8.90;91.70;;;;;;5072626;28;20349;-64
2022/04/20 07:15:21;;;;;;;23.70;11.47;;;9.10;92.00;;;;;;5072712;28;20309;-61
2022/04/20 07:17:47;;;;;;;25.83;12.93;;;9.30;92.10;;;;;;5053379;28;20178;-63
2022/04/20 07:20:17;;;;;;;27.00;13.00;;;9.30;92.10;;;;;;5052871;28;20196;-61
2022/04/20 07:22:50;;;;;;;32.63;13.07;;;9.30;92.40;;;;;;5076210;28;20639;-60
2022/04/20 07:25:17;;;;;;;27.70;12.67;;;9.10;92.80;;;;;;5072266;28;20205;-60
2022/04/20 07:27:45;;;;;;;27.43;12.13;;;9.10;92.90;;;;;;5072311;28;20268;-62
2022/04/20 07:30:12;;;;;;;28.30;13.40;;;9.30;93.00;;;;;;5071790;28;20179;-61
2022/04/20 07:32:38;;;;;;;31.63;13.90;;;9.40;92.30;;;;;;5069415;28;20206;-61
2022/04/20 07:35:04;;;;;;;36.03;15.20;;;9.30;92.90;;;;;;5052789;28;20683;-61
2022/04/20 07:37:31;;;;;;;36.30;14.70;;;9.60;92.80;;;;;;5035558;28;20188;-66
2022/04/20 07:39:57;;;;;;;26.87;14.67;;;10.00;92.50;;;;;;5052307;28;20596;-61
2022/04/20 07:42:23;;;;;;;26.03;13.70;;;10.40;91.90;;;;;;5071120;28;20190;-63
2022/04/20 07:44:49;;;;;;;37.77;14.67;;;10.70;91.40;;;;;;5090305;28;20555;-63
2022/04/20 07:47:16;;;;;;;31.30;14.93;;;10.80;91.10;;;;;;5091095;28;20173;-60
2022/04/20 07:52:25;;;;;;;23.77;12.30;;;10.90;89.80;;;;;;5080569;28;20203;-60
2022/04/20 07:54:52;;;;;;;35.87;14.87;;;10.80;89.90;;;;;;5089449;28;20237;-63
2022/04/20 07:57:18;;;;;;;31.20;14.57;;;10.90;88.70;;;;;;5072510;28;20254;-61
2022/04/20 07:59:44;;;;;;;24.80;14.27;;;10.70;90.10;;;;;;5090229;28;20182;-62
2022/04/20 08:02:10;;;;;;;26.83;13.27;;;10.90;88.60;;;;;;5071857;28;20169;-60
2022/04/20 08:04:36;;;;;;;33.07;14.83;;;10.80;87.50;;;;;;5071633;28;20209;-60
2022/04/20 08:07:02;;;;;;;26.23;11.87;;;10.80;88.50;;;;;;5056117;28;20190;-61
2022/04/20 08:09:29;;;;;;;26.37;11.03;;;10.80;85.00;;;;;;5072664;28;20190;-61
2022/04/20 08:11:55;;;;;;;24.00;12.03;;;10.50;86.50;;;;;;5076145;28;20254;-60
2022/04/20 08:14:21;;;;;;;24.27;12.20;;;10.40;85.80;;;;;;5043273;28;20224;-59
2022/04/20 08:16:47;;;;;;;27.13;12.80;;;10.60;86.00;;;;;;5094683;28;20540;-59
2022/04/20 08:19:13;;;;;;;27.70;12.50;;;10.60;84.60;;;;;;5051026;28;20669;-60
2022/04/20 08:21:39;;;;;;;25.33;11.97;;;10.40;84.50;;;;;;5037920;28;20181;-61
2022/04/20 08:24:06;;;;;;;21.73;10.80;;;10.60;85.00;;;;;;5071298;28;20194;-62
2022/04/20 08:26:32;;;;;;;19.20;11.13;;;10.80;81.70;;;;;;5054759;28;20561;-65
2022/04/20 08:28:58;;;;;;;38.33;12.93;;;10.90;80.60;;;;;;5074401;28;20190;-59
2022/04/20 08:31:24;;;;;;;29.70;12.30;;;11.00;81.60;;;;;;5073117;28;20190;-60
2022/04/20 08:33:51;;;;;;;23.30;12.30;;;10.90;81.70;;;;;;5023081;28;20217;-60
2022/04/20 08:36:17;;;;;;;25.93;11.27;;;10.60;82.20;;;;;;5039762;28;20615;-62
2022/04/20 08:38:44;;;;;;;26.70;13.53;;;10.40;83.90;;;;;;5039644;28;20518;-59
2022/04/20 08:41:15;;;;;;;23.10;11.80;;;10.40;82.60;;;;;;5056122;28;20267;-61
2022/04/20 08:43:41;;;;;;;30.23;12.53;;;10.40;83.00;;;;;;5066094;28;20209;-62
2022/04/20 08:46:10;;;;;;;20.63;11.60;;;10.40;82.30;;;;;;5058040;28;20184;-61
2022/04/20 08:48:36;;;;;;;28.97;11.70;;;10.40;81.80;;;;;;5074930;28;20201;-60
2022/04/20 08:51:07;;;;;;;33.07;12.80;;;10.50;81.90;;;;;;5066425;28;20533;-63
2022/04/20 08:53:34;;;;;;;24.30;12.73;;;10.70;82.10;;;;;;5072747;28;20322;-63
2022/04/20 08:58:48;;;;;;;40.40;14.10;;;11.20;80.60;;;;;;5073539;28;20201;-62
2022/04/20 09:01:16;;;;;;;24.83;12.07;;;11.40;79.60;;;;;;5073750;28;20622;-60
2022/04/20 09:03:46;;;;;;;17.47;9.80;;;11.60;80.00;;;;;;5055603;28;20205;-61
2022/04/20 09:06:15;;;;;;;22.03;9.47;;;11.60;77.30;;;;;;5073374;28;20183;-60
2022/04/20 09:08:43;;;;;;;16.60;9.60;;;11.30;75.90;;;;;;5038993;28;20202;-61
2022/04/20 09:11:09;;;;;;;16.13;9.33;;;11.30;76.30;;;;;;5039458;28;20186;-59
2022/04/20 09:13:41;;;;;;;20.40;8.57;;;11.20;76.90;;;;;;5074115;28;20216;-65
2022/04/20 09:16:11;;;;;;;28.53;11.50;;;10.60;76.20;;;;;;5056143;28;20189;-61
2022/04/20 09:18:39;;;;;;;16.37;7.70;;;10.20;78.20;;;;;;5073939;28;20594;-61
2022/04/20 09:21:12;;;;;;;13.50;7.70;;;10.10;76.60;;;;;;5073323;28;20196;-61
2022/04/20 09:23:39;;;;;;;11.20;6.37;;;10.00;76.40;;;;;;5054856;28;20353;-60
2022/04/20 09:26:18;;;;;;;12.27;7.27;;;10.20;76.20;;;;;;5073396;28;20211;-60
2022/04/20 09:29:07;;;;;;;12.20;5.40;;;10.40;76.10;;;;;;5073296;28;20525;-60
2022/04/20 09:31:42;;;;;;;14.60;6.30;;;10.50;73.50;;;;;;5055239;28;20174;-60
2022/04/20 09:34:08;;;;;;;8.40;5.10;;;11.00;73.80;;;;;;5073571;28;20705;-60
2022/04/20 09:36:42;;;;;;;9.60;4.23;;;11.50;72.30;;;;;;5073522;28;20674;-63
2022/04/20 09:39:09;;;;;;;9.90;4.77;;;11.70;69.30;;;;;;5038620;28;20192;-62
2022/04/20 09:41:55;;;;;;;11.97;5.97;;;11.40;69.00;;;;;;5038501;28;20273;-61
2022/04/20 09:44:22;;;;;;;10.70;4.37;;;11.40;68.80;;;;;;5070290;28;20273;-59
2022/04/20 09:49:51;;;;;;;13.23;5.30;;;11.10;69.30;;;;;;5093746;28;20598;-61
2022/04/20 09:52:17;;;;;;;10.50;5.33;;;11.10;69.40;;;;;;5074201;28;20198;-63
2022/04/20 09:54:59;;;;;;;12.50;5.13;;;11.20;69.90;;;;;;5054750;28;20233;-61
2022/04/20 09:57:25;;;;;;;10.30;4.63;;;11.60;69.90;;;;;;5054829;28;20195;-61
2022/04/20 09:59:59;;;;;;;8.43;5.33;;;11.60;67.30;;;;;;5038050;28;20276;-60
2022/04/20 10:02:27;;;;;;;11.63;5.10;;;11.80;68.60;;;;;;5038352;28;20183;-62
2022/04/20 10:04:55;;;;;;;12.43;5.20;;;11.40;68.50;;;;;;5054588;28;20188;-61
2022/04/20 10:07:21;;;;;;;9.93;5.43;;;11.20;69.40;;;;;;5054228;28;20176;-63
2022/04/20 10:09:47;;;;;;;10.37;6.07;;;11.40;69.10;;;;;;5065810;28;20198;-61
2022/04/20 10:12:15;;;;;;;10.97;5.53;;;11.40;69.60;;;;;;5092970;28;20177;-61
2022/04/20 10:17:34;;;;;;;6.83;4.73;;;11.90;67.60;;;;;;5092587;28;20193;-60
2022/04/20 10:20:04;;;;;;;13.90;6.37;;;11.60;67.70;;;;;;5073989;28;20183;-61
2022/04/20 10:22:31;;;;;;;16.00;6.07;;;11.90;67.70;;;;;;5073566;28;20180;-58
2022/04/20 10:24:59;;;;;;;11.17;5.63;;;12.40;68.10;;;;;;5092535;28;20180;-60
2022/04/20 10:27:45;;;;;;;11.67;5.37;;;12.70;66.90;;;;;;5074193;28;20631;-61
2022/04/20 10:30:18;;;;;;;10.57;5.00;;;12.50;66.70;;;;;;5091202;28;20675;-62
2022/04/20 10:33:13;;;;;;;12.70;5.80;;;12.90;65.20;;;;;;5092100;28;20177;-59
2022/04/20 10:35:59;;;;;;;11.93;5.63;;;13.70;64.40;;;;;;5073016;28;20688;-68
2022/04/20 10:38:27;;;;;;;7.40;4.43;;;13.20;62.80;;;;;;5073642;28;20185;-60
2022/04/20 10:40:57;;;;;;;9.67;5.17;;;13.10;62.50;;;;;;5073584;28;20302;-60
2022/04/20 10:43:24;;;;;;;23.23;5.47;;;13.00;63.00;;;;;;5091898;28;20256;-60
2022/04/20 10:46:04;;;;;;;11.77;5.53;;;13.00;63.10;;;;;;5091850;28;20345;-62
2022/04/20 10:48:56;;;;;;;12.90;5.13;;;13.20;63.50;;;;;;5091691;28;20179;-60
2022/04/20 10:51:42;;;;;;;8.63;4.80;;;13.20;61.60;;;;;;5062562;28;20213;-60
2022/04/20 10:54:28;;;;;;;8.80;4.97;;;13.10;62.70;;;;;;5071445;28;20338;-60
2022/04/20 10:57:14;;;;;;;10.50;5.00;;;13.30;62.00;;;;;;5071072;28;20166;-62
2022/04/20 10:59:41;;;;;;;7.73;4.70;;;13.50;62.60;;;;;;5071748;28;20220;-61
2022/04/20 11:02:09;;;;;;;9.63;4.90;;;13.70;60.40;;;;;;5054301;28;20218;-63
2022/04/20 11:04:50;;;;;;;7.53;4.70;;;13.50;60.20;;;;;;5053817;28;20185;-62
2022/04/20 11:07:26;;;;;;;7.93;4.57;;;13.50;61.10;;;;;;5053262;28;20193;-60
2022/04/20 11:10:05;;;;;;;10.23;5.03;;;13.70;61.40;;;;;;5070731;28;20533;-61
2022/04/20 11:18:39;;;;;;;16.53;7.00;;;13.90;60.60;;;;;;5016181;28;20185;-60
2022/04/20 11:21:07;;;;;;;11.47;5.43;;;14.20;60.40;;;;;;5055056;28;20188;-60
2022/04/20 11:24:08;;;;;;;8.73;4.97;;;14.10;60.10;;;;;;5071421;28;20590;-60
2022/04/20 11:26:37;;;;;;;12.93;5.03;;;14.50;59.80;;;;;;5053414;28;20182;-59
2022/04/20 11:29:10;;;;;;;12.50;6.53;;;14.80;58.00;;;;;;5071123;28;20176;-60
2022/04/20 11:31:45;;;;;;;8.53;5.03;;;14.50;57.90;;;;;;5071319;28;20290;-61
2022/04/20 11:34:14;;;;;;;14.30;6.60;;;15.40;57.40;;;;;;5071147;28;20219;-60
2022/04/20 11:36:43;;;;;;;11.67;5.13;;;15.50;57.40;;;;;;5037395;28;20533;-60
2022/04/20 11:39:11;;;;;;;10.77;5.77;;;16.20;55.40;;;;;;5053050;28;20181;-61
2022/04/20 11:41:38;;;;;;;10.83;5.23;;;16.70;55.20;;;;;;5053356;28;20539;-62
2022/04/20 11:44:19;;;;;;;11.83;8.10;;;17.40;53.30;;;;;;5084163;28;20238;-61
2022/04/20 11:46:45;;;;;;;8.00;5.17;;;16.80;52.70;;;;;;5073337;28;20213;-61
2022/04/20 11:49:12;;;;;;;12.30;4.97;;;16.90;52.50;;;;;;5066250;28;20235;-62
2022/04/20 11:51:43;;;;;;;7.67;5.47;;;16.80;52.70;;;;;;5072675;28;20678;-59
2022/04/20 11:54:09;;;;;;;15.00;5.77;;;15.80;52.70;;;;;;5064661;28;20307;-61
2022/04/20 11:56:40;;;;;;;10.70;5.10;;;15.10;54.80;;;;;;5046795;28;20213;-61
2022/04/20 11:59:08;;;;;;;8.43;5.23;;;15.10;54.60;;;;;;5030388;28;20295;-62
2022/04/20 12:01:36;;;;;;;10.00;4.43;;;14.90;54.80;;;;;;5070198;28;20588;-65
2022/04/20 12:04:20;;;;;;;8.80;4.67;;;14.80;54.00;;;;;;5051960;28;20216;-61
2022/04/20 12:06:52;;;;;;;6.53;4.27;;;14.50;53.90;;;;;;5069991;28;20193;-61
2022/04/20 12:09:39;;;;;;;8.67;4.00;;;14.30;53.80;;;;;;5078658;28;20215;-62
2022/04/20 12:12:07;;;;;;;9.40;4.20;;;14.00;54.60;;;;;;5051838;28;20546;-62
2022/04/20 12:14:38;;;;;;;8.00;4.60;;;14.50;55.30;;;;;;5052285;28;20220;-62
2022/04/20 12:17:22;;;;;;;15.30;5.73;;;15.20;54.30;;;;;;5039548;28;20643;-61
2022/04/20 12:19:50;;;;;;;9.77;4.90;;;16.20;53.50;;;;;;5070221;28;20247;-62
2022/04/20 12:22:21;;;;;;;7.83;4.83;;;17.00;52.90;;;;;;5036013;28;20229;-62
2022/04/20 12:24:48;;;;;;;7.40;4.10;;;17.40;50.30;;;;;;5049756;28;20292;-64
2022/04/20 12:27:22;;;;;;;8.30;4.37;;;16.80;50.00;;;;;;5052145;28;20305;-61
2022/04/20 12:29:59;;;;;;;9.80;4.33;;;16.00;50.50;;;;;;5050973;28;20792;-60
2022/04/20 12:32:32;;;;;;;10.13;4.03;;;15.90;51.60;;;;;;5061569;28;20269;-61
2022/04/20 12:35:01;;;;;;;8.33;4.43;;;15.60;51.80;;;;;;5052430;28;20241;-62
2022/04/20 12:37:31;;;;;;;9.13;4.73;;;15.50;52.20;;;;;;5032723;28;20190;-61
2022/04/20 12:40:18;;;;;;;7.53;4.40;;;15.50;52.90;;;;;;5049681;28;20196;-62
2022/04/20 12:43:00;;;;;;;8.27;4.67;;;15.30;52.80;;;;;;5065899;28;20189;-61
2022/04/20 12:45:26;;;;;;;9.33;5.00;;;14.80;53.50;;;;;;5046575;28;20519;-61
2022/04/20 12:48:05;;;;;;;10.57;4.43;;;14.80;53.70;;;;;;5033618;28;20205;-58
2022/04/20 12:50:39;;;;;;;6.60;4.00;;;14.30;53.90;;;;;;5049619;28;20188;-59
2022/04/20 12:53:06;;;;;;;8.93;4.50;;;14.30;54.20;;;;;;5069264;28;20322;-59
2022/04/20 13:04:13;;;;;;;9.77;4.80;;;15.90;52.50;;;;;;5072191;28;20200;-59
2022/04/20 13:06:39;;;;;;;8.27;4.87;;;15.50;52.70;;;;;;5076154;28;20240;-62
2022/04/20 13:09:05;;;;;;;10.67;4.80;;;15.00;53.80;;;;;;5093711;28;20262;-59
2022/04/20 13:11:31;;;;;;;12.67;5.60;;;13.90;56.10;;;;;;5062695;28;20204;-58
2022/04/20 13:13:57;;;;;;;10.33;5.13;;;13.40;57.00;;;;;;5055060;28;20223;-60
2022/04/20 13:16:23;;;;;;;6.43;4.47;;;13.00;57.20;;;;;;5075213;28;20189;-57
2022/04/20 13:18:49;;;;;;;6.73;3.73;;;12.90;58.50;;;;;;5075132;28;20192;-57
2022/04/20 13:21:15;;;;;;;12.47;4.70;;;12.70;58.10;;;;;;5041193;28;20195;-61
2022/04/20 13:23:41;;;;;;;12.27;5.57;;;12.80;59.00;;;;;;5038116;28;20192;-58
2022/04/20 13:28:51;;;;;;;17.13;5.10;;;13.20;58.10;;;;;;5073040;28;20196;-61